Time;durP1;ratioP1;P1;durP2;ratioP2;P2;SDS_P1;SDS_P2;PMS_P1;PMS_P2;Temp;Humidity;BMP_temperature;BMP_pressure;BME280_temperature;BME280_humidity;BME280_pressure;Samples;Min_cycle;Max_cycle;Signal;HPM_P1;HPM_P2
2022/04/05 00:02:32;;;;;;;13.00;6.97;;;;;5.20;95512.00;;;;8429907;28;20306;-63
2022/04/05 00:07:10;;;;;;;14.60;7.87;;;;;5.20;95512.00;;;;8431072;28;20296;-63
2022/04/05 00:11:44;;;;;;;11.50;7.27;;;;;5.20;95515.00;;;;8430338;28;20215;-63
2022/04/05 00:15:47;;;;;;;11.57;6.97;;;;;5.20;95515.00;;;;8429759;28;20302;-63
2022/04/05 00:20:21;;;;;;;14.87;8.53;;;;;5.20;95507.00;;;;8430436;28;20634;-63
2022/04/05 00:24:26;;;;;;;13.97;8.10;;;;;5.30;95504.00;;;;8429693;28;20219;-63
2022/04/05 00:28:29;;;;;;;17.47;8.60;;;;;5.40;95496.00;;;;8429766;28;20719;-63
2022/04/05 00:33:05;;;;;;;15.17;8.10;;;;;5.40;95501.00;;;;8423651;28;20643;-62
2022/04/05 00:37:08;;;;;;;14.40;7.80;;;;;5.40;95485.00;;;;8429688;28;20711;-62
2022/04/05 00:41:13;;;;;;;10.23;7.20;;;;;5.40;95469.00;;;;8429536;28;20659;-61
2022/04/05 00:45:16;;;;;;;10.13;7.73;;;;;5.40;95481.00;;;;8429400;28;20660;-63
2022/04/05 00:49:54;;;;;;;11.07;7.10;;;;;5.40;95483.00;;;;8429318;28;20217;-62
2022/04/05 00:54:04;;;;;;;14.00;7.23;;;;;5.40;95476.00;;;;8428635;28;20218;-63
2022/04/05 00:58:34;;;;;;;10.90;6.90;;;;;5.40;95461.00;;;;8429504;28;20548;-62
2022/04/05 01:02:40;;;;;;;11.50;7.70;;;;;5.40;95468.00;;;;8428889;28;20222;-62
2022/04/05 01:06:46;;;;;;;12.57;7.90;;;;;5.40;95467.00;;;;8428047;28;20227;-63
2022/04/05 01:10:51;;;;;;;12.40;7.30;;;;;5.40;95461.00;;;;8429764;28;20310;-63
2022/04/05 01:14:55;;;;;;;12.40;8.10;;;;;5.50;95451.00;;;;8428280;28;20229;-65
2022/04/05 01:19:00;;;;;;;12.90;7.20;;;;;5.50;95450.00;;;;8428439;28;20231;-64
2022/04/05 01:23:03;;;;;;;18.63;8.40;;;;;5.50;95436.00;;;;8428124;28;20242;-63
2022/04/05 01:27:16;;;;;;;10.87;7.40;;;;;5.50;95450.00;;;;8428004;28;20306;-64
2022/04/05 01:31:19;;;;;;;12.77;7.80;;;;;5.50;95435.00;;;;8428014;28;20302;-64
2022/04/05 01:35:53;;;;;;;15.20;8.80;;;;;5.50;95431.00;;;;8428424;28;20227;-63
2022/04/05 01:39:56;;;;;;;12.70;8.43;;;;;5.50;95422.00;;;;8427372;28;20298;-62
2022/04/05 01:44:35;;;;;;;10.40;7.27;;;;;5.50;95415.00;;;;8428067;28;20261;-63
2022/04/05 01:48:39;;;;;;;17.10;8.80;;;;;5.50;95413.00;;;;8427512;28;20233;-63
2022/04/05 01:52:42;;;;;;;13.60;8.17;;;;;5.60;95401.00;;;;8427532;28;20241;-62
2022/04/05 01:57:19;;;;;;;15.30;8.40;;;;;5.50;95410.00;;;;8427658;28;20259;-63
2022/04/05 02:01:24;;;;;;;14.23;8.10;;;;;5.50;95403.00;;;;8427864;28;20235;-63
2022/04/05 02:05:27;;;;;;;12.47;8.27;;;;;5.50;95397.00;;;;8460777;28;20229;-63
2022/04/05 02:10:01;;;;;;;12.10;7.73;;;;;5.50;95395.00;;;;8460550;28;20309;-62
2022/04/05 02:14:04;;;;;;;11.73;8.20;;;;;5.50;95384.00;;;;8460887;28;20301;-62
2022/04/05 02:18:43;;;;;;;12.10;7.50;;;;;5.50;95398.00;;;;8460361;28;20222;-62
2022/04/05 02:23:20;;;;;;;14.57;7.30;;;;;5.50;95402.00;;;;8460694;28;20226;-62
2022/04/05 02:27:24;;;;;;;12.33;7.93;;;;;5.50;95395.00;;;;8460462;28;20219;-62
2022/04/05 02:31:28;;;;;;;14.30;8.17;;;;;5.50;95386.00;;;;8460212;28;20595;-62
2022/04/05 02:36:07;;;;;;;12.10;8.40;;;;;5.40;95386.00;;;;8463279;28;20229;-62
2022/04/05 02:40:40;;;;;;;12.27;7.93;;;;;5.50;95385.00;;;;8467623;28;20310;-62
2022/04/05 02:44:44;;;;;;;11.97;7.13;;;;;5.50;95384.00;;;;8464902;28;20225;-62
2022/04/05 02:48:48;;;;;;;15.60;7.53;;;;;5.50;95381.00;;;;8467057;28;20245;-63
2022/04/05 02:53:25;;;;;;;12.87;8.33;;;;;5.50;95380.00;;;;8467087;28;20305;-63
2022/04/05 02:58:03;;;;;;;11.60;8.23;;;;;5.50;95389.00;;;;8465008;28;20305;-63
2022/04/05 03:02:06;;;;;;;11.53;7.93;;;;;5.50;95374.00;;;;8455933;22;20328;-63
2022/04/05 03:06:11;;;;;;;12.17;6.67;;;;;5.30;95377.00;;;;8338968;28;20316;-65
2022/04/05 03:10:15;;;;;;;11.30;7.93;;;;;5.30;95372.00;;;;8343805;28;20231;-64
2022/04/05 03:14:19;;;;;;;13.03;8.10;;;;;5.20;95373.00;;;;8344847;28;20749;-64
2022/04/05 03:18:22;;;;;;;12.00;8.10;;;;;5.10;95385.00;;;;8347064;28;20239;-65
2022/04/05 03:22:25;;;;;;;17.20;9.27;;;;;5.00;95374.00;;;;8347928;28;20806;-64
2022/04/05 03:26:28;;;;;;;10.17;6.63;;;;;4.90;95373.00;;;;8342570;28;20394;-65
2022/04/05 03:30:34;;;;;;;16.33;9.77;;;;;4.90;95374.00;;;;8342351;28;20223;-63
2022/04/05 03:34:37;;;;;;;16.03;8.90;;;;;4.80;95370.00;;;;8334334;28;20316;-66
2022/04/05 03:38:40;;;;;;;16.63;8.77;;;;;4.90;95375.00;;;;8343240;28;20233;-62
2022/04/05 03:42:43;;;;;;;17.77;9.20;;;;;4.80;95365.00;;;;8341554;28;20938;-64
2022/04/05 03:46:48;;;;;;;13.43;8.00;;;;;4.90;95363.00;;;;8343504;28;20244;-64
2022/04/05 03:50:51;;;;;;;13.30;8.93;;;;;4.80;95357.00;;;;8342799;28;20247;-64
2022/04/05 03:54:54;;;;;;;12.57;8.63;;;;;4.70;95363.00;;;;8349948;28;20585;-64
2022/04/05 03:58:58;;;;;;;17.73;9.47;;;;;4.60;95376.00;;;;8345443;28;20236;-66
2022/04/05 04:03:03;;;;;;;18.87;9.20;;;;;4.50;95371.00;;;;8335475;28;20630;-64
2022/04/05 04:07:07;;;;;;;17.67;9.37;;;;;4.40;95373.00;;;;8341219;28;20629;-63
2022/04/05 04:11:10;;;;;;;18.53;10.17;;;;;4.40;95370.00;;;;8344178;28;20326;-65
2022/04/05 04:15:14;;;;;;;15.07;9.17;;;;;4.30;95369.00;;;;8345438;28;21747;-65
2022/04/05 04:19:19;;;;;;;17.07;9.20;;;;;4.30;95372.00;;;;8345999;28;20232;-63
2022/04/05 04:23:22;;;;;;;17.47;9.90;;;;;4.30;95369.00;;;;8345957;28;20744;-63
2022/04/05 04:27:26;;;;;;;21.97;10.63;;;;;4.20;95371.00;;;;8341536;28;20229;-63
2022/04/05 04:31:29;;;;;;;16.93;10.00;;;;;4.20;95371.00;;;;8344804;28;20263;-65
2022/04/05 04:35:34;;;;;;;20.13;10.63;;;;;4.10;95367.00;;;;8331773;28;20887;-64
2022/04/05 04:39:41;;;;;;;21.70;11.27;;;;;4.10;95371.00;;;;8325862;28;20327;-62
2022/04/05 04:43:44;;;;;;;18.50;9.93;;;;;4.00;95381.00;;;;8330486;28;20228;-63
2022/04/05 04:47:47;;;;;;;19.33;10.00;;;;;4.00;95371.00;;;;8344091;28;20223;-64
2022/04/05 04:51:52;;;;;;;17.37;9.73;;;;;3.90;95386.00;;;;8344018;28;20744;-63
2022/04/05 04:55:55;;;;;;;17.17;8.83;;;;;3.80;95371.00;;;;8342274;28;20254;-63
2022/04/05 05:00:13;;;;;;;20.10;10.83;;;;;3.80;95383.00;;;;8341515;28;20276;-63
2022/04/05 05:04:16;;;;;;;21.80;11.00;;;;;3.70;95392.00;;;;8340509;28;20228;-64
2022/04/05 05:08:20;;;;;;;26.70;11.90;;;;;3.60;95390.00;;;;8337859;28;20257;-63
2022/04/05 05:12:24;;;;;;;20.23;12.80;;;;;3.50;95385.00;;;;8340036;28;20219;-64
2022/04/05 05:16:27;;;;;;;31.97;17.13;;;;;3.50;95393.00;;;;8342666;28;20315;-64
2022/04/05 05:20:31;;;;;;;239.60;130.03;;;;;3.50;95400.00;;;;8336359;28;20325;-63
2022/04/05 05:24:36;;;;;;;35.17;20.73;;;;;3.50;95395.00;;;;8340754;28;20798;-65
2022/04/05 05:28:39;;;;;;;70.20;32.27;;;;;3.40;95411.00;;;;8338194;28;20231;-66
2022/04/05 05:32:44;;;;;;;56.03;24.10;;;;;3.40;95389.00;;;;8344635;28;20231;-68
2022/04/05 05:36:47;;;;;;;89.40;36.97;;;;;3.50;95400.00;;;;8338840;28;20317;-67
2022/04/05 05:40:51;;;;;;;77.80;33.53;;;;;3.60;95400.00;;;;8338495;28;20575;-66
2022/04/05 05:44:55;;;;;;;97.10;45.00;;;;;3.60;95394.00;;;;8335509;28;20913;-66
2022/04/05 05:48:58;;;;;;;42.50;20.93;;;;;3.70;95401.00;;;;8346808;28;20227;-66
2022/04/05 05:53:01;;;;;;;60.73;32.97;;;;;3.80;95403.00;;;;8341955;28;20241;-66
2022/04/05 05:57:06;;;;;;;30.37;16.33;;;;;3.80;95411.00;;;;8346660;28;20230;-66
2022/04/05 06:01:10;;;;;;;32.67;16.63;;;;;3.90;95407.00;;;;8343290;28;20228;-67
2022/04/05 06:05:13;;;;;;;44.63;25.90;;;;;4.00;95426.00;;;;8344463;28;20351;-65
2022/04/05 06:09:17;;;;;;;25.00;13.30;;;;;4.00;95443.00;;;;8335195;28;20223;-65
2022/04/05 06:13:36;;;;;;;39.97;21.83;;;;;4.10;95435.00;;;;8335615;28;20276;-65
2022/04/05 06:17:42;;;;;;;23.20;12.23;;;;;4.10;95439.00;;;;8337968;28;20250;-66
2022/04/05 06:21:45;;;;;;;22.80;10.73;;;;;4.20;95438.00;;;;8335027;28;20239;-67
2022/04/05 06:25:48;;;;;;;20.53;12.10;;;;;4.30;95447.00;;;;8340347;28;20924;-65
2022/04/05 06:29:52;;;;;;;27.40;14.50;;;;;4.30;95459.00;;;;8350250;28;20566;-66
2022/04/05 06:33:57;;;;;;;27.57;14.70;;;;;4.30;95458.00;;;;8349302;28;20232;-72
2022/04/05 06:38:00;;;;;;;26.73;13.47;;;;;4.30;95463.00;;;;8348562;28;20262;-70
2022/04/05 06:42:04;;;;;;;29.27;15.63;;;;;4.30;95463.00;;;;8350092;28;20653;-67
2022/04/05 06:46:08;;;;;;;24.20;12.17;;;;;4.40;95463.00;;;;8350379;28;21857;-67
2022/04/05 06:50:14;;;;;;;26.17;12.83;;;;;4.40;95463.00;;;;8355126;28;20250;-65
2022/04/05 06:54:17;;;;;;;27.17;12.97;;;;;4.50;95464.00;;;;8345578;28;20234;-65
2022/04/05 06:58:20;;;;;;;23.20;11.43;;;;;4.60;95467.00;;;;8351183;28;20239;-70
2022/04/05 07:02:25;;;;;;;27.30;13.23;;;;;4.60;95466.00;;;;8356519;28;20311;-70
2022/04/05 07:06:28;;;;;;;27.70;13.63;;;;;4.70;95479.00;;;;8348540;28;20306;-66
2022/04/05 07:10:31;;;;;;;26.80;11.40;;;;;4.70;95470.00;;;;8347948;28;20334;-66
2022/04/05 07:14:35;;;;;;;28.23;13.60;;;;;4.80;95470.00;;;;8346447;28;20303;-67
2022/04/05 07:18:39;;;;;;;23.63;11.70;;;;;4.90;95478.00;;;;8340683;28;20236;-67
2022/04/05 07:22:48;;;;;;;30.67;12.03;;;;;5.00;95467.00;;;;8344599;28;20796;-68
2022/04/05 07:26:51;;;;;;;30.67;13.17;;;;;5.10;95454.00;;;;8358308;28;20232;-67
2022/04/05 07:30:54;;;;;;;24.90;13.20;;;;;5.20;95458.00;;;;8349586;28;20239;-67
2022/04/05 07:34:59;;;;;;;33.20;13.77;;;;;5.30;95462.00;;;;8341196;28;20718;-66
2022/04/05 07:39:02;;;;;;;26.97;12.97;;;;;5.30;95474.00;;;;8357329;28;20699;-67
2022/04/05 07:43:06;;;;;;;31.37;13.50;;;;;5.30;95477.00;;;;8349900;28;20307;-66
2022/04/05 07:47:09;;;;;;;23.10;12.03;;;;;5.30;95467.00;;;;8357697;28;20296;-66
2022/04/05 07:51:14;;;;;;;29.93;13.70;;;;;5.30;95477.00;;;;8341701;28;20233;-66
2022/04/05 07:55:17;;;;;;;27.27;13.50;;;;;5.40;95468.00;;;;8343240;28;20227;-68
2022/04/05 07:59:21;;;;;;;30.40;12.97;;;;;5.40;95471.00;;;;8359830;28;20568;-67
2022/04/05 08:03:24;;;;;;;31.73;13.57;;;;;5.50;95480.00;;;;8348810;28;20223;-66
2022/04/05 08:07:29;;;;;;;27.10;12.67;;;;;5.60;95475.00;;;;8331840;28;20221;-67
2022/04/05 08:11:34;;;;;;;29.10;13.67;;;;;5.70;95487.00;;;;8335356;28;20239;-66
2022/04/05 08:15:39;;;;;;;27.43;12.87;;;;;5.70;95494.00;;;;8366390;28;20234;-66
2022/04/05 08:19:42;;;;;;;34.30;15.03;;;;;5.70;95494.00;;;;8354753;28;20235;-68
2022/04/05 08:23:50;;;;;;;31.80;14.57;;;;;5.80;95502.00;;;;8348045;28;20225;-66
2022/04/05 08:27:54;;;;;;;32.00;13.63;;;;;5.80;95502.00;;;;8351914;28;20244;-66
2022/04/05 08:31:57;;;;;;;30.53;13.97;;;;;5.80;95510.00;;;;8340517;28;20311;-67
2022/04/05 08:36:00;;;;;;;30.93;13.70;;;;;5.80;95502.00;;;;8353245;28;20233;-66
2022/04/05 08:40:07;;;;;;;35.87;14.70;;;;;5.90;95509.00;;;;8343517;28;20274;-67
2022/04/05 08:44:12;;;;;;;27.00;12.57;;;;;6.00;95519.00;;;;8340550;28;20231;-65
2022/04/05 08:48:15;;;;;;;34.43;14.80;;;;;5.90;95529.00;;;;8333776;28;20224;-67
2022/04/05 08:52:18;;;;;;;29.03;12.40;;;;;5.90;95531.00;;;;8344636;28;20842;-66
2022/04/05 08:56:26;;;;;;;33.77;12.50;;;;;6.00;95529.00;;;;8346537;28;20668;-66
2022/04/05 09:00:30;;;;;;;24.70;11.47;;;;;6.10;95524.00;;;;8346886;28;20237;-66
2022/04/05 09:04:33;;;;;;;31.00;13.90;;;;;6.20;95525.00;;;;8346119;28;20694;-66
2022/04/05 09:08:36;;;;;;;33.80;13.47;;;;;6.20;95528.00;;;;8335954;28;20268;-66
2022/04/05 09:12:45;;;;;;;29.50;14.43;;;;;6.30;95524.00;;;;8344017;28;20227;-66
2022/04/05 09:17:04;;;;;;;28.97;13.23;;;;;6.60;95532.00;;;;8339366;28;20229;-66
2022/04/05 09:21:09;;;;;;;34.47;14.10;;;;;6.60;95518.00;;;;8335557;28;20238;-66
2022/04/05 09:25:14;;;;;;;26.17;11.60;;;;;6.80;95539.00;;;;8346530;28;20239;-66
2022/04/05 09:29:19;;;;;;;26.47;11.83;;;;;6.90;95536.00;;;;8348505;28;20646;-66
2022/04/05 09:33:22;;;;;;;26.33;12.40;;;;;7.00;95531.00;;;;8339490;28;20227;-66
2022/04/05 09:37:26;;;;;;;24.47;11.73;;;;;7.20;95519.00;;;;8341257;28;20329;-66
2022/04/05 09:41:30;;;;;;;25.63;12.00;;;;;7.20;95526.00;;;;8347909;28;20237;-67
2022/04/05 09:45:45;;;;;;;26.90;11.60;;;;;7.30;95524.00;;;;8344547;28;20236;-66
2022/04/05 09:49:50;;;;;;;30.40;14.30;;;;;7.40;95525.00;;;;8336253;28;20809;-66
2022/04/05 09:53:56;;;;;;;29.83;12.00;;;;;7.50;95518.00;;;;8339909;28;20307;-66
2022/04/05 09:58:11;;;;;;;25.97;11.83;;;;;7.50;95517.00;;;;8337118;28;20220;-66
2022/04/05 10:02:17;;;;;;;32.20;13.10;;;;;7.70;95520.00;;;;8340027;28;20237;-65
2022/04/05 10:06:26;;;;;;;23.17;10.30;;;;;7.90;95515.00;;;;8348399;28;20332;-65
2022/04/05 10:10:30;;;;;;;29.70;12.67;;;;;7.90;95528.00;;;;8340462;28;20747;-66
2022/04/05 10:14:33;;;;;;;32.90;13.30;;;;;7.70;95525.00;;;;8346308;28;20622;-65
2022/04/05 10:18:38;;;;;;;24.57;11.83;;;;;7.80;95522.00;;;;8341891;28;20811;-65
2022/04/05 10:22:42;;;;;;;31.63;12.10;;;;;7.80;95531.00;;;;8345120;28;20247;-65
2022/04/05 10:26:48;;;;;;;28.47;12.60;;;;;7.90;95541.00;;;;8346556;28;20232;-65
2022/04/05 10:31:00;;;;;;;23.63;10.67;;;;;8.00;95528.00;;;;8349149;28;20251;-65
2022/04/05 10:35:08;;;;;;;21.17;10.97;;;;;8.00;95535.00;;;;8338648;28;20240;-65
2022/04/05 10:39:19;;;;;;;23.87;11.27;;;;;8.00;95530.00;;;;8350410;28;20311;-64
2022/04/05 10:43:22;;;;;;;23.67;9.83;;;;;8.00;95528.00;;;;8356150;28;20278;-63
2022/04/05 10:47:28;;;;;;;26.13;11.13;;;;;8.10;95528.00;;;;8344069;28;20224;-64
2022/04/05 10:52:15;;;;;;;29.00;11.50;;;;;8.10;95524.00;;;;8342708;28;20228;-65
2022/04/05 10:56:18;;;;;;;24.80;11.40;;;;;8.30;95530.00;;;;8355130;28;20780;-66
2022/04/05 11:00:26;;;;;;;33.13;11.90;;;;;8.20;95523.00;;;;8348107;28;20235;-65
2022/04/05 11:04:35;;;;;;;15.60;7.63;;;;;8.30;95514.00;;;;8350105;28;20233;-66
2022/04/05 11:08:42;;;;;;;23.87;9.47;;;;;8.20;95517.00;;;;8338347;28;20308;-67
2022/04/05 11:12:45;;;;;;;20.80;10.00;;;;;8.30;95527.00;;;;8346263;28;20240;-66
2022/04/05 11:16:51;;;;;;;19.53;10.03;;;;;8.30;95530.00;;;;8334674;28;20249;-66
2022/04/05 11:20:57;;;;;;;18.60;9.53;;;;;8.30;95520.00;;;;8345660;28;20708;-67
2022/04/05 11:25:05;;;;;;;24.67;10.43;;;;;8.40;95526.00;;;;8342729;28;20295;-66
2022/04/05 11:29:22;;;;;;;18.35;9.63;;;;;8.50;95522.00;;;;8348379;28;20226;-66
2022/04/05 11:33:45;;;;;;;25.20;11.80;;;;;8.50;95528.00;;;;8346449;28;20881;-66
2022/04/05 11:37:48;;;;;;;24.67;10.83;;;;;8.60;95533.00;;;;8337273;28;20231;-67
2022/04/05 11:41:59;;;;;;;21.77;10.77;;;;;8.60;95530.00;;;;8347843;28;20233;-66
2022/04/05 11:46:07;;;;;;;19.07;9.77;;;;;8.50;95530.00;;;;8339220;28;20232;-65
2022/04/05 11:50:12;;;;;;;26.90;11.67;;;;;8.50;95524.00;;;;8345358;28;20229;-67
2022/04/05 11:54:18;;;;;;;33.33;12.13;;;;;8.50;95522.00;;;;8328782;28;20258;-68
2022/04/05 11:58:26;;;;;;;25.50;10.40;;;;;8.60;95522.00;;;;8337023;28;20221;-68
2022/04/05 12:02:29;;;;;;;26.90;10.83;;;;;8.70;95524.00;;;;8343415;28;20420;-68
2022/04/05 12:06:34;;;;;;;24.65;10.57;;;;;8.70;95519.00;;;;8347167;28;20251;-68
2022/04/05 12:10:38;;;;;;;24.63;10.40;;;;;8.70;95519.00;;;;8347145;28;20232;-69
2022/04/05 12:14:43;;;;;;;19.40;8.70;;;;;8.80;95524.00;;;;8350967;28;20235;-67
2022/04/05 12:18:46;;;;;;;23.40;9.50;;;;;8.70;95520.00;;;;8341788;28;20239;-68
2022/04/05 12:22:50;;;;;;;26.20;10.93;;;;;8.80;95521.00;;;;8338855;28;20235;-67
2022/04/05 12:26:56;;;;;;;21.97;9.90;;;;;8.90;95524.00;;;;8355762;28;20221;-67
2022/04/05 12:31:12;;;;;;;18.20;8.93;;;;;8.90;95514.00;;;;8356552;28;20236;-67
2022/04/05 12:35:16;;;;;;;21.48;8.60;;;;;8.80;95526.00;;;;8338343;28;20213;-67
2022/04/05 12:39:24;;;;;;;21.23;9.97;;;;;8.80;95524.00;;;;8353693;28;20311;-66
2022/04/05 12:43:33;;;;;;;25.67;8.73;;;;;8.80;95523.00;;;;8340747;28;20311;-67
2022/04/05 12:47:46;;;;;;;18.30;8.50;;;;;8.80;95528.00;;;;8333938;28;20235;-67
2022/04/05 12:51:51;;;;;;;20.15;8.23;;;;;8.80;95518.00;;;;8344265;28;20220;-67
2022/04/05 12:55:59;;;;;;;20.07;8.33;;;;;8.80;95518.00;;;;8343310;28;20225;-66
2022/04/05 13:00:11;;;;;;;24.70;9.40;;;;;8.80;95522.00;;;;8351166;28;20271;-68
2022/04/05 13:04:16;;;;;;;18.60;8.17;;;;;8.70;95518.00;;;;8346774;28;20232;-67
2022/04/05 13:08:30;;;;;;;20.75;8.65;;;;;8.80;95517.00;;;;8334432;28;20863;-67
2022/04/05 13:12:38;;;;;;;16.65;8.60;;;;;8.90;95514.00;;;;8348789;28;20301;-67
2022/04/05 13:16:43;;;;;;;19.00;8.38;;;;;8.90;95507.00;;;;8344385;28;20228;-68
2022/04/05 13:21:02;;;;;;;20.50;8.67;;;;;8.80;95506.00;;;;8336473;28;20224;-68
2022/04/05 13:25:06;;;;;;;15.47;6.67;;;;;8.90;95508.00;;;;8341912;28;20787;-67
2022/04/05 13:29:11;;;;;;;16.80;8.90;;;;;8.80;95507.00;;;;8351156;28;20236;-67
2022/04/05 13:33:15;;;;;;;17.40;8.17;;;;;8.80;95507.00;;;;8339752;28;20244;-66
2022/04/05 13:37:21;;;;;;;21.20;8.37;;;;;8.80;95510.00;;;;8342808;28;20303;-67
2022/04/05 13:41:24;;;;;;;18.40;8.93;;;;;8.80;95518.00;;;;8333771;28;20583;-66
2022/04/05 13:45:27;;;;;;;21.75;9.27;;;;;8.80;95510.00;;;;8345018;28;20565;-67
2022/04/05 13:49:31;;;;;;;24.53;8.67;;;;;8.80;95505.00;;;;8344917;28;21050;-67
2022/04/05 13:53:36;;;;;;;19.73;9.20;;;;;8.90;95504.00;;;;8334906;28;20307;-69
2022/04/05 13:57:39;;;;;;;18.10;8.37;;;;;8.90;95505.00;;;;8344520;28;20896;-66
2022/04/05 14:01:43;;;;;;;19.97;8.87;;;;;8.90;95503.00;;;;8345224;28;20217;-64
2022/04/05 14:05:47;;;;;;;22.23;9.57;;;;;9.00;95498.00;;;;8340265;28;20307;-65
2022/04/05 14:09:52;;;;;;;16.40;8.40;;;;;9.10;95499.00;;;;8341696;28;20229;-67
2022/04/05 14:13:58;;;;;;;23.67;10.73;;;;;9.10;95494.00;;;;8344646;28;20238;-65
2022/04/05 14:18:01;;;;;;;22.23;10.57;;;;;9.10;95490.00;;;;8345100;28;20248;-66
2022/04/05 14:22:05;;;;;;;25.13;10.60;;;;;9.30;95483.00;;;;8338619;28;20229;-65
2022/04/05 14:26:10;;;;;;;16.53;8.97;;;;;9.20;95492.00;;;;8347968;28;20307;-65
2022/04/05 14:30:14;;;;;;;22.80;9.93;;;;;9.20;95482.00;;;;8343552;28;20228;-67
2022/04/05 14:34:17;;;;;;;19.37;9.50;;;;;9.30;95478.00;;;;8344586;28;20232;-66
2022/04/05 14:38:20;;;;;;;18.47;9.97;;;;;9.30;95471.00;;;;8349862;28;20305;-69
2022/04/05 14:42:26;;;;;;;22.87;10.83;;;;;9.20;95480.00;;;;8350029;28;20239;-67
2022/04/05 14:46:49;;;;;;;20.90;10.43;;;;;9.30;95481.00;;;;8340443;28;20221;-71
2022/04/05 14:50:53;;;;;;;24.40;11.00;;;;;9.40;95477.00;;;;8352442;28;20229;-69
2022/04/05 14:54:57;;;;;;;20.17;10.17;;;;;9.60;95479.00;;;;8349474;28;20228;-68
2022/04/05 14:59:01;;;;;;;19.03;9.80;;;;;9.80;95475.00;;;;8351080;28;20643;-71
2022/04/05 15:03:05;;;;;;;21.83;9.73;;;;;9.80;95476.00;;;;8349323;28;20585;-67
2022/04/05 15:07:09;;;;;;;20.87;10.80;;;;;9.80;95477.00;;;;8342490;28;20260;-67
2022/04/05 15:11:12;;;;;;;21.42;10.57;;;;;9.90;95482.00;;;;8349241;28;20668;-68
2022/04/05 15:15:18;;;;;;;35.60;19.90;;;;;10.00;95481.00;;;;8347473;28;20221;-68
2022/04/05 15:19:22;;;;;;;17.73;9.77;;;;;10.00;95481.00;;;;8348187;28;20227;-67
2022/04/05 15:23:27;;;;;;;22.75;11.18;;;;;10.00;95479.00;;;;8332861;28;20220;-67
2022/04/05 15:27:35;;;;;;;16.10;8.73;;;;;9.90;95481.00;;;;8347563;28;20214;-67
2022/04/05 15:31:39;;;;;;;20.00;10.00;;;;;9.90;95473.00;;;;8346818;28;20256;-67
2022/04/05 15:35:43;;;;;;;16.43;8.90;;;;;9.80;95474.00;;;;8350173;28;20256;-66
2022/04/05 15:39:48;;;;;;;18.93;8.20;;;;;9.80;95474.00;;;;8340208;28;20323;-66
2022/04/05 15:43:52;;;;;;;11.30;7.22;;;;;9.80;95460.00;;;;8343667;28;20236;-67
2022/04/05 15:47:56;;;;;;;20.67;8.90;;;;;9.80;95478.00;;;;8345466;28;20245;-67
2022/04/05 15:52:02;;;;;;;20.30;10.10;;;;;9.90;95473.00;;;;8344457;28;20226;-68
2022/04/05 15:56:06;;;;;;;14.83;8.73;;;;;10.00;95485.00;;;;8348978;28;20351;-68
2022/04/05 16:00:11;;;;;;;17.47;9.43;;;;;10.00;95487.00;;;;8343293;28;20236;-68
2022/04/05 16:04:16;;;;;;;14.43;8.90;;;;;9.90;95485.00;;;;8345319;28;20224;-68
2022/04/05 16:08:19;;;;;;;16.10;9.55;;;;;9.80;95489.00;;;;8346692;28;20870;-68
2022/04/05 16:12:23;;;;;;;18.35;9.25;;;;;9.80;95483.00;;;;8345357;28;20232;-68
2022/04/05 16:16:26;;;;;;;13.75;8.15;;;;;9.80;95484.00;;;;8347939;28;20220;-68
2022/04/05 16:20:31;;;;;;;19.08;9.02;;;;;9.70;95485.00;;;;8342654;28;20224;-70
2022/04/05 16:24:35;;;;;;;16.27;8.43;;;;;9.70;95483.00;;;;8345106;28;20329;-70
2022/04/05 16:28:40;;;;;;;16.95;9.43;;;;;9.60;95477.00;;;;8348609;28;20577;-71
2022/04/05 16:32:43;;;;;;;15.95;7.60;;;;;9.60;95488.00;;;;8346767;28;20596;-69
2022/04/05 16:36:48;;;;;;;15.27;7.60;;;;;9.60;95481.00;;;;8348357;28;20234;-69
2022/04/05 16:40:52;;;;;;;13.43;7.27;;;;;9.70;95487.00;;;;8348144;28;20227;-69
2022/04/05 16:44:55;;;;;;;17.73;7.75;;;;;9.70;95481.00;;;;8341740;28;21025;-67
2022/04/05 16:48:59;;;;;;;15.53;7.40;;;;;9.80;95482.00;;;;8342565;28;20236;-67
2022/04/05 16:53:03;;;;;;;10.73;6.20;;;;;9.80;95480.00;;;;8343020;28;21162;-67
2022/04/05 16:57:07;;;;;;;10.63;6.43;;;;;9.80;95484.00;;;;8346961;28;20231;-67
2022/04/05 17:01:10;;;;;;;11.73;7.27;;;;;9.80;95481.00;;;;8350095;28;20246;-66
2022/04/05 17:05:13;;;;;;;10.53;8.53;;;;;9.80;95482.00;;;;8344474;28;20232;-67
2022/04/05 17:09:19;;;;;;;13.57;6.72;;;;;9.70;95478.00;;;;8345806;28;20240;-68
2022/04/05 17:13:22;;;;;;;9.53;6.47;;;;;9.60;95477.00;;;;8339723;28;20950;-67
2022/04/05 17:17:26;;;;;;;9.10;5.87;;;;;9.60;95480.00;;;;8345941;28;20239;-66
2022/04/05 17:21:29;;;;;;;10.10;6.00;;;;;9.60;95475.00;;;;8341885;28;20238;-65
2022/04/05 17:25:34;;;;;;;11.82;6.03;;;;;9.50;95474.00;;;;8337496;28;20951;-67
2022/04/05 17:29:39;;;;;;;11.10;6.47;;;;;9.50;95478.00;;;;8341190;28;20236;-67
2022/04/05 17:33:46;;;;;;;14.77;6.30;;;;;9.40;95484.00;;;;8347364;28;20236;-67
2022/04/05 17:37:51;;;;;;;11.13;5.73;;;;;9.50;95480.00;;;;8342025;28;20227;-66
2022/04/05 17:41:55;;;;;;;10.03;5.27;;;;;9.40;95476.00;;;;8340447;28;20702;-67
2022/04/05 17:45:58;;;;;;;10.63;5.93;;;;;9.40;95481.00;;;;8346460;28;20220;-67
2022/04/05 17:50:03;;;;;;;8.03;6.07;;;;;9.30;95480.00;;;;8339752;28;20230;-72
2022/04/05 17:54:06;;;;;;;8.77;5.90;;;;;9.30;95486.00;;;;8341848;28;20239;-67
2022/04/05 17:58:11;;;;;;;11.57;5.43;;;;;9.30;95481.00;;;;8338512;28;20229;-66
2022/04/05 18:02:15;;;;;;;10.40;5.77;;;;;9.30;95480.00;;;;8346932;28;20236;-66
2022/04/05 18:06:19;;;;;;;12.83;5.70;;;;;9.30;95499.00;;;;8336803;28;20225;-66
2022/04/05 18:10:23;;;;;;;10.53;6.03;;;;;9.30;95494.00;;;;8339982;28;20213;-67
2022/04/05 18:14:28;;;;;;;8.00;5.05;;;;;9.30;95494.00;;;;8348666;28;20581;-66
2022/04/05 18:18:33;;;;;;;9.90;6.00;;;;;9.30;95496.00;;;;8332053;28;20221;-66
2022/04/05 18:22:37;;;;;;;12.37;7.53;;;;;9.30;95502.00;;;;8330186;28;20282;-66
2022/04/05 18:26:40;;;;;;;112.87;52.10;;;;;9.30;95511.00;;;;8336990;28;20573;-66
2022/04/05 18:30:45;;;;;;;64.43;35.37;;;;;9.30;95506.00;;;;8326205;28;20220;-66
2022/04/05 18:34:48;;;;;;;19.80;11.90;;;;;9.30;95516.00;;;;8327646;28;20262;-67
2022/04/05 18:38:52;;;;;;;34.47;19.70;;;;;9.30;95510.00;;;;8331097;28;20723;-67
2022/04/05 18:42:55;;;;;;;33.87;24.30;;;;;9.30;95515.00;;;;8340888;28;20248;-67
2022/04/05 18:47:00;;;;;;;193.55;103.28;;;;;9.30;95514.00;;;;8341684;28;20239;-67
2022/04/05 18:51:03;;;;;;;64.73;35.90;;;;;9.30;95522.00;;;;8337460;28;20593;-68
2022/04/05 18:55:07;;;;;;;16.03;9.90;;;;;9.30;95519.00;;;;8343000;28;20308;-66
2022/04/05 18:59:16;;;;;;;19.80;14.32;;;;;9.30;95529.00;;;;8340069;28;20687;-66
2022/04/05 19:03:20;;;;;;;11.37;6.93;;;;;9.30;95527.00;;;;8340772;28;20825;-67
2022/04/05 19:07:24;;;;;;;14.03;8.13;;;;;9.30;95537.00;;;;8330330;28;20247;-67
2022/04/05 19:11:27;;;;;;;18.25;8.85;;;;;9.30;95529.00;;;;8343187;28;20235;-66
2022/04/05 19:15:30;;;;;;;14.23;8.23;;;;;9.30;95537.00;;;;8334817;28;20233;-67
2022/04/05 19:19:35;;;;;;;17.47;9.03;;;;;9.20;95548.00;;;;8340371;28;20849;-66
2022/04/05 19:23:39;;;;;;;19.23;12.43;;;;;9.20;95546.00;;;;8342995;28;20734;-64
2022/04/05 19:27:43;;;;;;;12.10;7.07;;;;;9.20;95549.00;;;;8349838;28;20239;-65
2022/04/05 19:31:46;;;;;;;10.20;7.10;;;;;9.20;95552.00;;;;8338216;28;20244;-66
2022/04/05 19:35:51;;;;;;;14.13;6.40;;;;;9.20;95553.00;;;;8342284;28;20803;-66
2022/04/05 19:39:54;;;;;;;11.83;7.10;;;;;9.20;95553.00;;;;8346480;28;20300;-66
2022/04/05 19:43:59;;;;;;;12.13;6.90;;;;;9.20;95547.00;;;;8346933;28;20231;-67
2022/04/05 19:48:03;;;;;;;10.70;6.23;;;;;9.20;95544.00;;;;8345801;28;20229;-66
2022/04/05 19:52:09;;;;;;;11.37;6.30;;;;;9.20;95554.00;;;;8345974;28;20235;-67
2022/04/05 19:56:12;;;;;;;11.30;6.03;;;;;9.30;95556.00;;;;8344585;28;20228;-67
2022/04/05 20:00:15;;;;;;;13.67;5.73;;;;;9.20;95554.00;;;;8344705;28;20414;-67
2022/04/05 20:04:19;;;;;;;10.13;6.50;;;;;9.20;95559.00;;;;8345196;28;20236;-67
2022/04/05 20:08:23;;;;;;;11.27;5.60;;;;;9.20;95551.00;;;;8347402;28;20259;-68
2022/04/05 20:12:27;;;;;;;13.20;6.53;;;;;9.30;95558.00;;;;8345126;28;20895;-68
2022/04/05 20:20:51;;;;;;;10.57;5.87;;;;;9.30;95557.00;;;;8345089;28;20318;-66
2022/04/05 20:24:56;;;;;;;11.45;5.70;;;;;9.30;95559.00;;;;8343385;28;20866;-66
2022/04/05 20:28:59;;;;;;;9.43;5.70;;;;;9.30;95563.00;;;;8338770;28;20231;-67
2022/04/05 20:33:03;;;;;;;13.63;5.97;;;;;9.30;95563.00;;;;8342521;28;20224;-68